sensor_id;sensor_type;location;lat;lon;timestamp;pressure;altitude;pressure_sealevel;temperature;humidity
3122;BME280;1571;52.524;14.104;2023-05-10T00:01:47;100812.56;;;10.47;68.31
3122;BME280;1571;52.524;14.104;2023-05-10T00:04:15;100808.31;;;10.44;68.35
3122;BME280;1571;52.524;14.104;2023-05-10T00:06:44;100801.09;;;10.46;68.14
3122;BME280;1571;52.524;14.104;2023-05-10T00:09:14;100804.91;;;10.56;68.03
3122;BME280;1571;52.524;14.104;2023-05-10T00:11:42;100804.16;;;10.54;68.03
3122;BME280;1571;52.524;14.104;2023-05-10T00:14:11;100803.84;;;10.45;68.12
3122;BME280;1571;52.524;14.104;2023-05-10T00:16:39;100788.88;;;10.44;68.05
3122;BME280;1571;52.524;14.104;2023-05-10T00:19:07;100805.00;;;10.55;67.93
3122;BME280;1571;52.524;14.104;2023-05-10T00:21:36;100803.59;;;10.49;68.01
3122;BME280;1571;52.524;14.104;2023-05-10T00:24:05;100803.56;;;10.35;68.09
3122;BME280;1571;52.524;14.104;2023-05-10T00:26:34;100805.09;;;10.39;67.89
3122;BME280;1571;52.524;14.104;2023-05-10T00:29:02;100795.59;;;10.35;67.94
3122;BME280;1571;52.524;14.104;2023-05-10T00:31:31;100795.50;;;10.36;68.05
3122;BME280;1571;52.524;14.104;2023-05-10T00:33:59;100792.44;;;10.28;68.30
3122;BME280;1571;52.524;14.104;2023-05-10T00:36:27;100791.00;;;10.23;68.70
3122;BME280;1571;52.524;14.104;2023-05-10T00:38:55;100794.59;;;10.21;68.55
3122;BME280;1571;52.524;14.104;2023-05-10T00:41:24;100785.38;;;10.43;67.93
3122;BME280;1571;52.524;14.104;2023-05-10T00:43:53;100784.91;;;10.36;67.38
3122;BME280;1571;52.524;14.104;2023-05-10T00:46:23;100778.41;;;10.26;68.17
3122;BME280;1571;52.524;14.104;2023-05-10T00:48:52;100784.25;;;10.17;68.49
3122;BME280;1571;52.524;14.104;2023-05-10T00:51:20;100776.44;;;10.30;68.51
3122;BME280;1571;52.524;14.104;2023-05-10T00:53:49;100779.91;;;10.16;68.57
3122;BME280;1571;52.524;14.104;2023-05-10T00:56:19;100770.91;;;10.18;68.31
3122;BME280;1571;52.524;14.104;2023-05-10T00:58:50;100766.38;;;10.20;68.82
3122;BME280;1571;52.524;14.104;2023-05-10T01:01:19;100759.31;;;10.05;68.68
3122;BME280;1571;52.524;14.104;2023-05-10T01:03:48;100763.31;;;9.98;68.77
3122;BME280;1571;52.524;14.104;2023-05-10T01:06:16;100764.44;;;10.08;69.05
3122;BME280;1571;52.524;14.104;2023-05-10T01:08:45;100758.97;;;10.11;68.51
3122;BME280;1571;52.524;14.104;2023-05-10T01:11:13;100757.25;;;10.10;68.27
3122;BME280;1571;52.524;14.104;2023-05-10T01:13:43;100755.72;;;10.06;68.85
3122;BME280;1571;52.524;14.104;2023-05-10T01:16:14;100746.69;;;9.94;68.98
3122;BME280;1571;52.524;14.104;2023-05-10T01:18:44;100741.88;;;10.01;68.42
3122;BME280;1571;52.524;14.104;2023-05-10T01:21:19;100750.41;;;10.06;68.37
3122;BME280;1571;52.524;14.104;2023-05-10T01:24:09;100739.84;;;10.20;67.95
3122;BME280;1571;52.524;14.104;2023-05-10T01:27:19;100751.94;;;10.10;68.42
3122;BME280;1571;52.524;14.104;2023-05-10T01:32:55;100732.31;;;9.98;68.60
3122;BME280;1571;52.524;14.104;2023-05-10T01:35:31;100735.66;;;10.16;68.03
3122;BME280;1571;52.524;14.104;2023-05-10T01:38:10;100739.44;;;10.12;67.89
3122;BME280;1571;52.524;14.104;2023-05-10T01:40:45;100730.78;;;9.94;68.72
3122;BME280;1571;52.524;14.104;2023-05-10T01:43:21;100726.72;;;9.89;68.68
3122;BME280;1571;52.524;14.104;2023-05-10T01:46:03;100722.75;;;9.96;68.35
3122;BME280;1571;52.524;14.104;2023-05-10T01:48:40;100731.69;;;9.79;68.69
3122;BME280;1571;52.524;14.104;2023-05-10T01:51:14;100721.56;;;9.71;69.40
3122;BME280;1571;52.524;14.104;2023-05-10T01:53:46;100712.31;;;9.93;68.92
3122;BME280;1571;52.524;14.104;2023-05-10T01:56:16;100718.56;;;9.77;69.42
3122;BME280;1571;52.524;14.104;2023-05-10T01:58:48;100713.06;;;9.80;69.03
3122;BME280;1571;52.524;14.104;2023-05-10T02:01:20;100718.78;;;9.58;69.65
3122;BME280;1571;52.524;14.104;2023-05-10T02:03:53;100722.03;;;9.64;69.79
3122;BME280;1571;52.524;14.104;2023-05-10T02:06:22;100717.38;;;9.67;69.48
3122;BME280;1571;52.524;14.104;2023-05-10T02:08:52;100709.00;;;9.59;69.71
3122;BME280;1571;52.524;14.104;2023-05-10T02:11:22;100713.69;;;9.40;70.70
3122;BME280;1571;52.524;14.104;2023-05-10T02:13:52;100709.31;;;9.38;70.73
3122;BME280;1571;52.524;14.104;2023-05-10T02:16:27;100708.75;;;9.33;70.94
3122;BME280;1571;52.524;14.104;2023-05-10T02:19:01;100710.94;;;9.57;70.13
3122;BME280;1571;52.524;14.104;2023-05-10T02:21:30;100706.06;;;9.19;71.03
3122;BME280;1571;52.524;14.104;2023-05-10T02:24:01;100709.63;;;9.18;71.71
3122;BME280;1571;52.524;14.104;2023-05-10T02:26:31;100704.81;;;9.25;71.54
3122;BME280;1571;52.524;14.104;2023-05-10T02:29:02;100704.50;;;9.15;71.54
3122;BME280;1571;52.524;14.104;2023-05-10T02:31:32;100700.84;;;9.48;70.27
3122;BME280;1571;52.524;14.104;2023-05-10T02:34:02;100697.66;;;9.27;70.54
3122;BME280;1571;52.524;14.104;2023-05-10T02:36:32;100691.53;;;9.10;71.23
3122;BME280;1571;52.524;14.104;2023-05-10T02:39:01;100700.41;;;8.93;72.12
3122;BME280;1571;52.524;14.104;2023-05-10T02:41:32;100701.44;;;8.91;72.40
3122;BME280;1571;52.524;14.104;2023-05-10T02:44:02;100694.97;;;8.96;72.11
3122;BME280;1571;52.524;14.104;2023-05-10T02:46:30;100690.84;;;9.07;71.92
3122;BME280;1571;52.524;14.104;2023-05-10T02:48:59;100692.72;;;9.05;71.85
3122;BME280;1571;52.524;14.104;2023-05-10T02:51:31;100696.75;;;9.12;71.91
3122;BME280;1571;52.524;14.104;2023-05-10T02:54:13;100696.91;;;9.09;71.55
3122;BME280;1571;52.524;14.104;2023-05-10T02:56:47;100694.84;;;8.98;71.94
3122;BME280;1571;52.524;14.104;2023-05-10T02:59:18;100697.69;;;8.79;72.66
3122;BME280;1571;52.524;14.104;2023-05-10T03:01:46;100701.13;;;8.81;73.29
3122;BME280;1571;52.524;14.104;2023-05-10T03:04:15;100696.16;;;8.91;73.36
3122;BME280;1571;52.524;14.104;2023-05-10T03:06:44;100694.78;;;8.68;73.51
3122;BME280;1571;52.524;14.104;2023-05-10T03:09:13;100698.81;;;8.75;73.75
3122;BME280;1571;52.524;14.104;2023-05-10T03:11:52;100696.84;;;8.47;74.27
3122;BME280;1571;52.524;14.104;2023-05-10T03:14:34;100689.84;;;8.62;74.05
3122;BME280;1571;52.524;14.104;2023-05-10T03:17:11;100688.53;;;8.69;74.40
3122;BME280;1571;52.524;14.104;2023-05-10T03:19:46;100692.41;;;8.79;73.91
3122;BME280;1571;52.524;14.104;2023-05-10T03:22:24;100687.78;;;8.67;73.27
3122;BME280;1571;52.524;14.104;2023-05-10T03:24:55;100685.75;;;8.56;73.96
3122;BME280;1571;52.524;14.104;2023-05-10T03:27:27;100690.28;;;8.70;73.80
3122;BME280;1571;52.524;14.104;2023-05-10T03:29:56;100684.38;;;8.49;74.15
3122;BME280;1571;52.524;14.104;2023-05-10T03:32:25;100677.38;;;8.64;73.85
3122;BME280;1571;52.524;14.104;2023-05-10T03:34:54;100687.88;;;8.65;73.63
3122;BME280;1571;52.524;14.104;2023-05-10T03:37:25;100673.81;;;8.81;72.85
3122;BME280;1571;52.524;14.104;2023-05-10T03:39:53;100681.63;;;8.82;73.11
3122;BME280;1571;52.524;14.104;2023-05-10T03:42:22;100684.53;;;8.62;73.66
3122;BME280;1571;52.524;14.104;2023-05-10T03:44:50;100676.72;;;8.76;73.80
3122;BME280;1571;52.524;14.104;2023-05-10T03:47:18;100677.19;;;8.67;73.97
3122;BME280;1571;52.524;14.104;2023-05-10T03:49:46;100673.81;;;8.65;73.68
3122;BME280;1571;52.524;14.104;2023-05-10T03:52:15;100669.16;;;8.84;73.10
3122;BME280;1571;52.524;14.104;2023-05-10T03:54:44;100672.72;;;9.15;71.87
3122;BME280;1571;52.524;14.104;2023-05-10T03:57:12;100682.78;;;9.24;71.50
3122;BME280;1571;52.524;14.104;2023-05-10T03:59:41;100682.25;;;9.33;71.65
3122;BME280;1571;52.524;14.104;2023-05-10T04:02:09;100681.56;;;9.46;70.56
3122;BME280;1571;52.524;14.104;2023-05-10T04:04:37;100682.41;;;9.46;70.89
3122;BME280;1571;52.524;14.104;2023-05-10T04:07:05;100675.59;;;9.87;69.85
3122;BME280;1571;52.524;14.104;2023-05-10T04:09:34;100671.53;;;9.95;69.53
3122;BME280;1571;52.524;14.104;2023-05-10T04:12:04;100663.19;;;10.30;68.62
3122;BME280;1571;52.524;14.104;2023-05-10T04:14:35;100669.19;;;10.34;68.31
3122;BME280;1571;52.524;14.104;2023-05-10T04:17:04;100665.31;;;10.67;67.13
3122;BME280;1571;52.524;14.104;2023-05-10T04:19:33;100673.88;;;10.72;66.30
3122;BME280;1571;52.524;14.104;2023-05-10T04:22:02;100665.25;;;10.68;66.23
3122;BME280;1571;52.524;14.104;2023-05-10T04:24:30;100668.09;;;10.65;66.29
3122;BME280;1571;52.524;14.104;2023-05-10T04:26:58;100673.28;;;10.67;66.87
3122;BME280;1571;52.524;14.104;2023-05-10T04:29:28;100673.13;;;10.70;66.33
3122;BME280;1571;52.524;14.104;2023-05-10T04:31:56;100666.50;;;10.90;65.67
3122;BME280;1571;52.524;14.104;2023-05-10T04:34:25;100664.03;;;11.14;65.81
3122;BME280;1571;52.524;14.104;2023-05-10T04:36:53;100668.13;;;10.92;65.33
3122;BME280;1571;52.524;14.104;2023-05-10T04:39:21;100676.19;;;11.18;65.58
3122;BME280;1571;52.524;14.104;2023-05-10T04:41:49;100673.31;;;11.21;64.77
3122;BME280;1571;52.524;14.104;2023-05-10T04:44:18;100668.72;;;11.10;65.70
3122;BME280;1571;52.524;14.104;2023-05-10T04:46:47;100664.94;;;11.27;64.98
3122;BME280;1571;52.524;14.104;2023-05-10T04:49:16;100670.47;;;11.24;65.16
3122;BME280;1571;52.524;14.104;2023-05-10T04:51:44;100660.53;;;11.53;64.90
3122;BME280;1571;52.524;14.104;2023-05-10T04:54:13;100668.00;;;11.74;64.51
3122;BME280;1571;52.524;14.104;2023-05-10T04:56:41;100671.72;;;11.84;64.65
3122;BME280;1571;52.524;14.104;2023-05-10T04:59:09;100667.19;;;11.99;64.21
3122;BME280;1571;52.524;14.104;2023-05-10T05:01:37;100668.22;;;11.83;63.89
3122;BME280;1571;52.524;14.104;2023-05-10T05:04:07;100669.94;;;11.72;63.69
3122;BME280;1571;52.524;14.104;2023-05-10T05:06:35;100667.94;;;12.01;63.71
3122;BME280;1571;52.524;14.104;2023-05-10T05:09:04;100666.13;;;12.14;63.73
3122;BME280;1571;52.524;14.104;2023-05-10T05:11:32;100670.47;;;12.15;63.58
3122;BME280;1571;52.524;14.104;2023-05-10T05:14:00;100670.72;;;12.12;62.82
3122;BME280;1571;52.524;14.104;2023-05-10T05:16:30;100666.84;;;12.42;62.88
3122;BME280;1571;52.524;14.104;2023-05-10T05:18:59;100677.28;;;12.32;62.52
3122;BME280;1571;52.524;14.104;2023-05-10T05:21:29;100668.47;;;12.19;62.37
3122;BME280;1571;52.524;14.104;2023-05-10T05:23:59;100679.81;;;12.34;62.44
3122;BME280;1571;52.524;14.104;2023-05-10T05:26:27;100668.00;;;12.38;62.78
3122;BME280;1571;52.524;14.104;2023-05-10T05:28:55;100668.59;;;12.67;62.23
3122;BME280;1571;52.524;14.104;2023-05-10T05:31:24;100668.56;;;12.80;62.68
3122;BME280;1571;52.524;14.104;2023-05-10T05:33:52;100666.31;;;12.74;61.60
3122;BME280;1571;52.524;14.104;2023-05-10T05:36:21;100670.22;;;12.57;61.14
3122;BME280;1571;52.524;14.104;2023-05-10T05:38:50;100663.66;;;12.74;61.08
3122;BME280;1571;52.524;14.104;2023-05-10T05:41:19;100669.06;;;13.09;61.13
3122;BME280;1571;52.524;14.104;2023-05-10T05:43:48;100658.31;;;13.35;60.92
3122;BME280;1571;52.524;14.104;2023-05-10T05:46:16;100660.75;;;13.13;60.55
3122;BME280;1571;52.524;14.104;2023-05-10T05:48:45;100663.56;;;13.47;60.04
3122;BME280;1571;52.524;14.104;2023-05-10T05:51:13;100660.31;;;13.55;59.69
3122;BME280;1571;52.524;14.104;2023-05-10T05:53:41;100660.19;;;13.57;60.07
3122;BME280;1571;52.524;14.104;2023-05-10T05:56:11;100670.84;;;13.45;59.47
3122;BME280;1571;52.524;14.104;2023-05-10T05:58:39;100669.16;;;13.44;59.40
3122;BME280;1571;52.524;14.104;2023-05-10T06:01:07;100666.28;;;13.59;59.69
3122;BME280;1571;52.524;14.104;2023-05-10T06:03:35;100667.91;;;13.95;59.33
3122;BME280;1571;52.524;14.104;2023-05-10T06:06:04;100669.63;;;13.96;58.93
3122;BME280;1571;52.524;14.104;2023-05-10T06:08:32;100668.16;;;13.92;59.02
3122;BME280;1571;52.524;14.104;2023-05-10T06:11:01;100668.50;;;13.76;58.45
3122;BME280;1571;52.524;14.104;2023-05-10T06:13:32;100667.94;;;13.60;58.53
3122;BME280;1571;52.524;14.104;2023-05-10T06:16:02;100672.50;;;13.82;58.69
3122;BME280;1571;52.524;14.104;2023-05-10T06:18:31;100664.78;;;14.35;58.48
3122;BME280;1571;52.524;14.104;2023-05-10T06:20:59;100672.69;;;14.14;57.89
3122;BME280;1571;52.524;14.104;2023-05-10T06:23:27;100676.41;;;14.11;57.85
3122;BME280;1571;52.524;14.104;2023-05-10T06:25:55;100680.34;;;14.19;57.98
3122;BME280;1571;52.524;14.104;2023-05-10T06:28:24;100659.69;;;14.54;57.90
3122;BME280;1571;52.524;14.104;2023-05-10T06:30:53;100658.22;;;14.50;57.80
3122;BME280;1571;52.524;14.104;2023-05-10T06:33:21;100650.81;;;14.65;57.49
3122;BME280;1571;52.524;14.104;2023-05-10T06:35:50;100664.16;;;14.76;57.64
3122;BME280;1571;52.524;14.104;2023-05-10T06:38:18;100664.81;;;15.01;58.18
3122;BME280;1571;52.524;14.104;2023-05-10T06:40:46;100654.09;;;15.12;57.85
3122;BME280;1571;52.524;14.104;2023-05-10T06:43:14;100669.72;;;15.28;57.62
3122;BME280;1571;52.524;14.104;2023-05-10T06:45:43;100656.56;;;15.04;57.15
3122;BME280;1571;52.524;14.104;2023-05-10T06:48:13;100652.44;;;15.00;56.14
3122;BME280;1571;52.524;14.104;2023-05-10T06:50:41;100657.22;;;15.17;57.99
3122;BME280;1571;52.524;14.104;2023-05-10T06:53:09;100655.59;;;15.58;56.41
3122;BME280;1571;52.524;14.104;2023-05-10T06:55:38;100656.31;;;15.60;56.56
3122;BME280;1571;52.524;14.104;2023-05-10T06:58:07;100656.00;;;15.75;56.57
3122;BME280;1571;52.524;14.104;2023-05-10T07:00:35;100654.81;;;15.68;56.28
3122;BME280;1571;52.524;14.104;2023-05-10T07:03:06;100654.81;;;15.89;56.04
3122;BME280;1571;52.524;14.104;2023-05-10T07:05:35;100645.44;;;15.94;55.82
3122;BME280;1571;52.524;14.104;2023-05-10T07:08:04;100651.56;;;15.85;55.05
3122;BME280;1571;52.524;14.104;2023-05-10T07:10:32;100659.44;;;15.87;55.12
3122;BME280;1571;52.524;14.104;2023-05-10T07:13:01;100654.41;;;15.93;54.80
3122;BME280;1571;52.524;14.104;2023-05-10T07:15:29;100643.34;;;15.77;55.10
3122;BME280;1571;52.524;14.104;2023-05-10T07:17:57;100650.97;;;15.81;54.98
3122;BME280;1571;52.524;14.104;2023-05-10T07:20:26;100652.81;;;16.12;54.88
3122;BME280;1571;52.524;14.104;2023-05-10T07:22:56;100644.38;;;16.16;55.14
3122;BME280;1571;52.524;14.104;2023-05-10T07:25:24;100645.25;;;16.17;54.98
3122;BME280;1571;52.524;14.104;2023-05-10T07:27:53;100646.75;;;16.50;54.92
3122;BME280;1571;52.524;14.104;2023-05-10T07:30:21;100631.97;;;16.56;53.71
3122;BME280;1571;52.524;14.104;2023-05-10T07:32:49;100635.75;;;16.43;54.17
3122;BME280;1571;52.524;14.104;2023-05-10T07:35:17;100632.94;;;16.55;55.58
3122;BME280;1571;52.524;14.104;2023-05-10T07:37:46;100628.84;;;17.20;55.73
3122;BME280;1571;52.524;14.104;2023-05-10T07:40:15;100632.06;;;17.34;54.19
3122;BME280;1571;52.524;14.104;2023-05-10T07:42:44;100628.56;;;16.94;53.59
3122;BME280;1571;52.524;14.104;2023-05-10T07:45:12;100633.22;;;16.82;53.93
3122;BME280;1571;52.524;14.104;2023-05-10T07:47:40;100629.69;;;16.92;53.69
3122;BME280;1571;52.524;14.104;2023-05-10T07:50:09;100626.28;;;17.28;53.66
3122;BME280;1571;52.524;14.104;2023-05-10T07:52:37;100627.16;;;17.19;52.88
3122;BME280;1571;52.524;14.104;2023-05-10T07:55:07;100615.56;;;17.48;52.83
3122;BME280;1571;52.524;14.104;2023-05-10T07:57:37;100618.25;;;17.28;52.22
3122;BME280;1571;52.524;14.104;2023-05-10T08:00:06;100620.63;;;17.51;52.89
3122;BME280;1571;52.524;14.104;2023-05-10T08:02:41;100615.81;;;17.64;52.58
3122;BME280;1571;52.524;14.104;2023-05-10T08:05:09;100613.72;;;17.29;51.89
3122;BME280;1571;52.524;14.104;2023-05-10T08:07:38;100612.03;;;17.28;52.47
3122;BME280;1571;52.524;14.104;2023-05-10T08:10:07;100621.47;;;17.42;53.00
3122;BME280;1571;52.524;14.104;2023-05-10T08:12:37;100616.97;;;17.42;52.65
3122;BME280;1571;52.524;14.104;2023-05-10T08:15:06;100609.59;;;17.64;52.18
3122;BME280;1571;52.524;14.104;2023-05-10T08:17:35;100620.34;;;17.54;53.09
3122;BME280;1571;52.524;14.104;2023-05-10T08:20:05;100611.97;;;18.24;53.27
3122;BME280;1571;52.524;14.104;2023-05-10T08:22:34;100627.06;;;17.97;51.65
3122;BME280;1571;52.524;14.104;2023-05-10T08:25:03;100615.81;;;17.55;51.64
3122;BME280;1571;52.524;14.104;2023-05-10T08:27:31;100615.38;;;17.69;52.16
3122;BME280;1571;52.524;14.104;2023-05-10T08:30:00;100618.13;;;17.97;51.32
3122;BME280;1571;52.524;14.104;2023-05-10T08:32:29;100612.13;;;18.22;51.22
3122;BME280;1571;52.524;14.104;2023-05-10T08:34:57;100612.16;;;18.13;51.81
3122;BME280;1571;52.524;14.104;2023-05-10T08:37:25;100605.56;;;18.52;52.29
3122;BME280;1571;52.524;14.104;2023-05-10T08:39:57;100615.72;;;18.03;50.71
3122;BME280;1571;52.524;14.104;2023-05-10T08:42:28;100616.13;;;18.08;50.82
3122;BME280;1571;52.524;14.104;2023-05-10T08:44:59;100623.13;;;18.19;51.59
3122;BME280;1571;52.524;14.104;2023-05-10T08:47:29;100614.09;;;18.20;51.63
3122;BME280;1571;52.524;14.104;2023-05-10T08:49:58;100617.13;;;18.07;51.10
3122;BME280;1571;52.524;14.104;2023-05-10T08:52:28;100606.78;;;18.40;51.75
3122;BME280;1571;52.524;14.104;2023-05-10T08:54:58;100608.13;;;18.54;50.48
3122;BME280;1571;52.524;14.104;2023-05-10T08:57:26;100609.97;;;18.81;51.40
3122;BME280;1571;52.524;14.104;2023-05-10T08:59:54;100608.19;;;18.44;50.21
3122;BME280;1571;52.524;14.104;2023-05-10T09:02:23;100608.66;;;18.30;50.73
3122;BME280;1571;52.524;14.104;2023-05-10T09:04:53;100610.09;;;18.80;51.28
3122;BME280;1571;52.524;14.104;2023-05-10T09:07:21;100601.34;;;18.50;50.00
3122;BME280;1571;52.524;14.104;2023-05-10T09:09:50;100608.06;;;18.64;50.58
3122;BME280;1571;52.524;14.104;2023-05-10T09:12:18;100606.25;;;18.82;49.18
3122;BME280;1571;52.524;14.104;2023-05-10T09:14:47;100605.19;;;19.11;50.41
3122;BME280;1571;52.524;14.104;2023-05-10T09:17:15;100593.75;;;18.91;48.49
3122;BME280;1571;52.524;14.104;2023-05-10T09:19:44;100594.59;;;18.91;49.07
3122;BME280;1571;52.524;14.104;2023-05-10T09:22:14;100593.28;;;18.96;48.61
3122;BME280;1571;52.524;14.104;2023-05-10T09:24:43;100603.66;;;19.26;51.24
3122;BME280;1571;52.524;14.104;2023-05-10T09:27:12;100608.09;;;19.35;49.54
3122;BME280;1571;52.524;14.104;2023-05-10T09:29:42;100603.06;;;19.14;48.80
3122;BME280;1571;52.524;14.104;2023-05-10T09:32:11;100606.97;;;19.64;50.06
3122;BME280;1571;52.524;14.104;2023-05-10T09:34:39;100602.22;;;19.14;48.47
3122;BME280;1571;52.524;14.104;2023-05-10T09:37:09;100598.19;;;19.00;48.55
3122;BME280;1571;52.524;14.104;2023-05-10T09:39:38;100607.44;;;19.60;48.80
3122;BME280;1571;52.524;14.104;2023-05-10T09:42:09;100589.06;;;19.55;48.30
3122;BME280;1571;52.524;14.104;2023-05-10T09:44:37;100604.25;;;19.38;48.50
3122;BME280;1571;52.524;14.104;2023-05-10T09:47:07;100593.50;;;19.20;48.07
3122;BME280;1571;52.524;14.104;2023-05-10T09:49:36;100603.16;;;19.49;47.93
3122;BME280;1571;52.524;14.104;2023-05-10T09:52:05;100595.66;;;19.34;47.93
3122;BME280;1571;52.524;14.104;2023-05-10T09:54:34;100595.75;;;19.51;48.40
3122;BME280;1571;52.524;14.104;2023-05-10T09:57:04;100586.44;;;19.45;48.52
3122;BME280;1571;52.524;14.104;2023-05-10T09:59:33;100589.75;;;19.83;48.88
3122;BME280;1571;52.524;14.104;2023-05-10T10:02:02;100581.94;;;19.98;48.12
3122;BME280;1571;52.524;14.104;2023-05-10T10:04:30;100583.31;;;20.02;47.05
3122;BME280;1571;52.524;14.104;2023-05-10T10:07:01;100583.25;;;19.94;47.68
3122;BME280;1571;52.524;14.104;2023-05-10T10:09:31;100578.28;;;19.73;47.12
3122;BME280;1571;52.524;14.104;2023-05-10T10:11:59;100590.09;;;20.14;47.87
3122;BME280;1571;52.524;14.104;2023-05-10T10:14:30;100573.13;;;20.22;46.58
3122;BME280;1571;52.524;14.104;2023-05-10T10:17:00;100575.16;;;20.20;47.45
3122;BME280;1571;52.524;14.104;2023-05-10T10:19:32;100577.00;;;20.28;46.93
3122;BME280;1571;52.524;14.104;2023-05-10T10:22:01;100571.34;;;20.55;47.39
3122;BME280;1571;52.524;14.104;2023-05-10T10:24:29;100566.22;;;20.70;46.81
3122;BME280;1571;52.524;14.104;2023-05-10T10:27:04;100560.19;;;20.34;46.85
3122;BME280;1571;52.524;14.104;2023-05-10T10:29:42;100560.75;;;20.54;46.66
3122;BME280;1571;52.524;14.104;2023-05-10T10:32:22;100555.91;;;20.57;46.74
3122;BME280;1571;52.524;14.104;2023-05-10T10:34:54;100552.63;;;20.46;45.60
3122;BME280;1571;52.524;14.104;2023-05-10T10:37:23;100561.59;;;20.54;47.30
3122;BME280;1571;52.524;14.104;2023-05-10T10:40:28;100560.38;;;20.41;46.21
3122;BME280;1571;52.524;14.104;2023-05-10T10:43:21;100557.06;;;20.04;45.29
3122;BME280;1571;52.524;14.104;2023-05-10T10:46:12;100548.69;;;20.91;46.36
3122;BME280;1571;52.524;14.104;2023-05-10T10:48:43;100544.44;;;20.64;45.36
3122;BME280;1571;52.524;14.104;2023-05-10T10:51:15;100545.31;;;20.89;45.06
3122;BME280;1571;52.524;14.104;2023-05-10T10:53:43;100553.78;;;21.10;44.42
3122;BME280;1571;52.524;14.104;2023-05-10T10:56:12;100542.13;;;21.26;44.56
3122;BME280;1571;52.524;14.104;2023-05-10T10:58:49;100548.56;;;21.41;44.94
3122;BME280;1571;52.524;14.104;2023-05-10T11:01:20;100543.47;;;21.30;45.08
3122;BME280;1571;52.524;14.104;2023-05-10T11:04:17;100547.19;;;21.21;44.38
3122;BME280;1571;52.524;14.104;2023-05-10T11:06:46;100554.59;;;20.86;44.35
3122;BME280;1571;52.524;14.104;2023-05-10T11:09:15;100551.22;;;21.33;44.57
3122;BME280;1571;52.524;14.104;2023-05-10T11:11:51;100559.16;;;21.27;43.71
3122;BME280;1571;52.524;14.104;2023-05-10T11:14:22;100545.81;;;20.84;43.78
3122;BME280;1571;52.524;14.104;2023-05-10T11:16:52;100545.50;;;20.95;43.52
3122;BME280;1571;52.524;14.104;2023-05-10T11:21:49;100537.72;;;21.09;44.34
3122;BME280;1571;52.524;14.104;2023-05-10T11:24:20;100539.22;;;21.60;44.08
3122;BME280;1571;52.524;14.104;2023-05-10T11:26:50;100546.78;;;21.73;44.60
3122;BME280;1571;52.524;14.104;2023-05-10T11:29:19;100539.06;;;21.62;45.37
3122;BME280;1571;52.524;14.104;2023-05-10T11:31:49;100550.38;;;21.33;44.49
3122;BME280;1571;52.524;14.104;2023-05-10T11:34:29;100541.97;;;21.19;43.90
3122;BME280;1571;52.524;14.104;2023-05-10T11:37:00;100546.16;;;21.30;44.66
3122;BME280;1571;52.524;14.104;2023-05-10T11:39:29;100535.72;;;21.44;44.24
3122;BME280;1571;52.524;14.104;2023-05-10T11:41:58;100538.69;;;21.73;43.23
3122;BME280;1571;52.524;14.104;2023-05-10T11:44:29;100535.03;;;21.97;43.28
3122;BME280;1571;52.524;14.104;2023-05-10T11:46:58;100543.41;;;21.71;44.87
3122;BME280;1571;52.524;14.104;2023-05-10T11:49:28;100545.53;;;21.92;43.51
3122;BME280;1571;52.524;14.104;2023-05-10T11:52:03;100538.47;;;21.83;43.60
3122;BME280;1571;52.524;14.104;2023-05-10T11:54:32;100543.09;;;21.66;43.83
3122;BME280;1571;52.524;14.104;2023-05-10T11:57:02;100541.75;;;21.62;43.10
3122;BME280;1571;52.524;14.104;2023-05-10T11:59:30;100539.34;;;21.75;43.70
3122;BME280;1571;52.524;14.104;2023-05-10T12:01:58;100534.53;;;21.46;43.54
3122;BME280;1571;52.524;14.104;2023-05-10T12:04:28;100540.41;;;22.06;44.67
3122;BME280;1571;52.524;14.104;2023-05-10T12:06:57;100543.06;;;21.74;42.86
3122;BME280;1571;52.524;14.104;2023-05-10T12:09:25;100541.50;;;21.88;43.57
3122;BME280;1571;52.524;14.104;2023-05-10T12:12:09;100551.97;;;21.91;43.35
3122;BME280;1571;52.524;14.104;2023-05-10T12:14:38;100539.97;;;21.86;42.67
3122;BME280;1571;52.524;14.104;2023-05-10T12:17:06;100546.78;;;21.73;43.57
3122;BME280;1571;52.524;14.104;2023-05-10T12:19:40;100554.22;;;21.71;43.50
3122;BME280;1571;52.524;14.104;2023-05-10T12:22:10;100542.44;;;21.48;41.85
3122;BME280;1571;52.524;14.104;2023-05-10T12:24:38;100544.78;;;21.59;42.41
3122;BME280;1571;52.524;14.104;2023-05-10T12:27:08;100553.25;;;21.48;43.39
3122;BME280;1571;52.524;14.104;2023-05-10T12:29:36;100541.28;;;21.42;42.94
3122;BME280;1571;52.524;14.104;2023-05-10T12:32:08;100542.91;;;21.76;43.58
3122;BME280;1571;52.524;14.104;2023-05-10T12:34:37;100541.13;;;21.44;42.22
3122;BME280;1571;52.524;14.104;2023-05-10T12:37:06;100549.44;;;21.81;43.71
3122;BME280;1571;52.524;14.104;2023-05-10T12:39:42;100539.06;;;21.46;43.31
3122;BME280;1571;52.524;14.104;2023-05-10T12:42:11;100540.25;;;21.51;43.03
3122;BME280;1571;52.524;14.104;2023-05-10T12:44:39;100543.06;;;21.74;42.82
3122;BME280;1571;52.524;14.104;2023-05-10T12:47:07;100546.41;;;21.85;41.60
3122;BME280;1571;52.524;14.104;2023-05-10T12:49:36;100542.28;;;21.41;42.37
3122;BME280;1571;52.524;14.104;2023-05-10T12:52:04;100549.84;;;21.62;42.81
3122;BME280;1571;52.524;14.104;2023-05-10T12:54:34;100543.13;;;21.50;42.40
3122;BME280;1571;52.524;14.104;2023-05-10T12:57:02;100556.47;;;21.51;43.37
3122;BME280;1571;52.524;14.104;2023-05-10T12:59:30;100555.53;;;21.83;43.04
3122;BME280;1571;52.524;14.104;2023-05-10T13:01:58;100540.66;;;21.79;41.32
3122;BME280;1571;52.524;14.104;2023-05-10T13:04:27;100543.59;;;21.70;40.76
3122;BME280;1571;52.524;14.104;2023-05-10T13:06:55;100540.72;;;21.71;41.44
3122;BME280;1571;52.524;14.104;2023-05-10T13:09:26;100546.31;;;21.53;42.04
3122;BME280;1571;52.524;14.104;2023-05-10T13:11:56;100539.16;;;21.77;41.81
3122;BME280;1571;52.524;14.104;2023-05-10T13:14:25;100538.34;;;21.68;43.00
3122;BME280;1571;52.524;14.104;2023-05-10T13:16:53;100549.28;;;21.91;42.94
3122;BME280;1571;52.524;14.104;2023-05-10T13:19:22;100533.25;;;22.21;41.36
3122;BME280;1571;52.524;14.104;2023-05-10T13:21:50;100528.06;;;22.11;41.41
3122;BME280;1571;52.524;14.104;2023-05-10T13:24:18;100531.38;;;22.30;41.49